Sarasota Bradenton International Airport
KSRQ : now visible

Airfield :











YOU CAN JOIN US ON...

 
LOGIN :

Register | Disclaimer

   EN    FR    IT 

 









Legend :    VFR   Marginal VFR   IFR   Intensive IFR   Very Intensive IFR
Visi :
Ceiling :
>= 8 km
>= 3000ft
5 to 8 km
1000 to 3000 ft
1500m to 5 km
500 to 1000 ft
800 to 1500m
200 to 500 ft
< 800m
< 200 ft
Symbols :   Thunderstorms  Fog  Heavy snow  Heavy precipitations  Wind > 20 kt







- Airport Elevation : 30 ft
- IATA code : SRQ


KSRQ - Sarasota Bradenton International

CURRENT METAR :
  • 210153Z 17008KT 10SM FEW070 FEW085 24/21 A3007 RMK AO2 SLP182 T02440206

EXPIRED METARs :
  • 210053Z 17009KT 10SM SCT070 BKN085 24/20 A3006 RMK AO2 SLP179 T02440200
  • 202353Z 18008KT 10SM OVC060 26/20 A3005 RMK AO2 SLP174 T02560200 10300 20256 53008

TAF KSRQ
Valid from the 21 at 00:00 until the 22 at 00:00 UTC


202335Z 2100/2124 17004KT P6SM SCT040
FM210900 13004KT P6SM FEW015 SCT030
FM211600 19012KT P6SM SCT020 SCT040
KZMA FIR / North America



MET'MAP, your aeronautical weather chart ! - Copyright ORBIFLY December 2007 - Disclaimer

ORBIFLY MET'MAP TEAM :

Programming & Development : Alexandra Zaïnal
Concept & Development : Baudouin d'Aumeries
Co-Development & Prog : Marc-Olivier Méhu
Technical & hardware support : Manuel Goepfert

Contact : metmap@orbifly.com




SOURCES & CREDITS :

   NOAA       Earth
Advisory